Time;durP1;ratioP1;P1;durP2;ratioP2;P2;SDS_P1;SDS_P2;PMS_P1;PMS_P2;Temp;Humidity;BMP_temperature;BMP_pressure;BME280_temperature;BME280_humidity;BME280_pressure;Samples;Min_cycle;Max_cycle;Signal;HPM_P1;HPM_P2
2022/03/10 00:01:11;;;;;;;10.88;6.28;;;9.30;99.90;;;;;;5049359;28;20037;-80
2022/03/10 00:03:36;;;;;;;9.63;5.90;;;9.20;99.90;;;;;;5049404;28;20033;-80
2022/03/10 00:06:03;;;;;;;10.43;6.30;;;9.20;99.90;;;;;;5049695;28;20086;-80
2022/03/10 00:08:28;;;;;;;9.02;6.40;;;9.10;99.90;;;;;;5050598;28;20028;-80
2022/03/10 00:10:54;;;;;;;9.45;5.70;;;9.20;99.90;;;;;;5048731;28;20047;-80
2022/03/10 00:13:20;;;;;;;9.57;5.80;;;9.20;99.90;;;;;;5048724;28;20552;-80
2022/03/10 00:15:45;;;;;;;10.18;5.90;;;9.20;99.90;;;;;;5049432;28;20104;-80
2022/03/10 00:18:11;;;;;;;7.93;6.47;;;9.20;99.90;;;;;;5053362;28;20563;-80
2022/03/10 00:20:37;;;;;;;9.68;5.78;;;9.20;99.90;;;;;;5054742;28;20025;-81
2022/03/10 00:23:02;;;;;;;10.55;5.43;;;9.20;99.90;;;;;;5052786;28;20025;-80
2022/03/10 00:25:28;;;;;;;9.68;5.80;;;9.20;99.90;;;;;;5052959;28;20029;-81
2022/03/10 00:27:54;;;;;;;8.98;5.53;;;9.20;99.90;;;;;;5051559;28;20041;-80
2022/03/10 00:30:20;;;;;;;12.30;6.63;;;9.30;99.90;;;;;;5053024;28;20116;-80
2022/03/10 00:32:50;;;;;;;8.68;5.50;;;9.30;99.90;;;;;;5054367;28;20025;-80
2022/03/10 00:35:22;;;;;;;10.40;5.97;;;9.20;99.90;;;;;;5052922;28;20108;-80
2022/03/10 00:37:48;;;;;;;12.80;5.93;;;9.30;99.90;;;;;;5052585;28;20036;-80
2022/03/10 00:40:15;;;;;;;10.65;6.65;;;9.40;99.90;;;;;;5050293;28;20035;-80
2022/03/10 00:42:42;;;;;;;9.07;5.90;;;9.30;99.90;;;;;;5052652;28;20023;-79
2022/03/10 00:45:09;;;;;;;8.70;5.93;;;9.20;99.90;;;;;;5053188;28;20027;-80
2022/03/10 00:47:35;;;;;;;12.80;6.38;;;9.30;99.90;;;;;;5053862;28;20127;-80
2022/03/10 00:50:03;;;;;;;7.28;5.85;;;9.30;99.90;;;;;;5052063;28;20041;-80
2022/03/10 00:52:29;;;;;;;9.50;6.20;;;9.20;99.90;;;;;;5052542;28;20048;-80
2022/03/10 00:54:54;;;;;;;10.40;6.40;;;9.10;99.90;;;;;;5051896;28;20507;-79
2022/03/10 00:57:20;;;;;;;7.57;5.55;;;9.20;99.90;;;;;;5052889;28;20024;-79
2022/03/10 00:59:46;;;;;;;11.38;6.03;;;9.20;99.90;;;;;;5053693;28;20035;-79
2022/03/10 01:02:12;;;;;;;6.85;5.00;;;9.10;99.90;;;;;;5052804;28;20569;-79
2022/03/10 01:04:38;;;;;;;7.88;5.13;;;9.20;99.90;;;;;;5051478;28;20544;-79
2022/03/10 01:07:03;;;;;;;7.55;5.40;;;9.20;99.90;;;;;;5052773;28;20049;-79
2022/03/10 01:09:29;;;;;;;8.18;5.30;;;9.10;99.90;;;;;;5052344;28;20027;-79
2022/03/10 01:11:55;;;;;;;8.18;5.30;;;9.20;99.90;;;;;;5053424;28;20522;-79
2022/03/10 01:14:21;;;;;;;8.82;5.13;;;9.30;99.90;;;;;;5051787;28;20108;-79
2022/03/10 01:16:47;;;;;;;6.72;4.63;;;9.30;99.90;;;;;;5051202;28;20101;-79
2022/03/10 01:19:14;;;;;;;9.45;5.15;;;9.20;99.90;;;;;;5052402;28;20116;-79
2022/03/10 01:21:41;;;;;;;11.77;6.03;;;9.30;99.90;;;;;;5051143;28;20063;-79
2022/03/10 01:24:07;;;;;;;7.93;6.05;;;9.30;99.90;;;;;;5034609;28;20032;-80
2022/03/10 01:26:33;;;;;;;14.25;5.72;;;9.30;99.90;;;;;;5051538;28;20433;-80
2022/03/10 01:28:58;;;;;;;9.23;6.22;;;9.30;99.90;;;;;;5051064;28;20521;-80
2022/03/10 01:31:24;;;;;;;7.43;5.78;;;9.40;99.90;;;;;;5051648;28;20492;-80
2022/03/10 01:33:50;;;;;;;8.85;5.85;;;9.30;99.90;;;;;;5050747;28;20306;-80
2022/03/10 01:36:16;;;;;;;11.43;6.50;;;9.40;99.90;;;;;;5051183;28;20599;-80
2022/03/10 01:38:42;;;;;;;8.40;6.03;;;9.40;99.90;;;;;;5051847;28;20556;-80
2022/03/10 01:41:09;;;;;;;10.32;6.57;;;9.40;99.90;;;;;;5050878;28;20059;-80
2022/03/10 01:44:01;;;;;;;9.98;6.03;;;9.40;99.90;;;;;;5050029;28;20052;-80
2022/03/10 01:46:27;;;;;;;12.00;6.97;;;9.40;99.90;;;;;;5048561;28;20023;-80
2022/03/10 01:48:54;;;;;;;10.10;6.05;;;9.30;99.90;;;;;;5049428;28;20119;-80
2022/03/10 01:51:20;;;;;;;9.75;6.47;;;9.30;99.90;;;;;;5050337;28;20029;-80
2022/03/10 01:53:48;;;;;;;8.77;6.20;;;9.40;99.90;;;;;;5052621;28;20029;-80
2022/03/10 01:56:15;;;;;;;7.57;5.60;;;9.30;99.90;;;;;;5050507;28;20063;-80
2022/03/10 01:58:40;;;;;;;10.45;5.50;;;9.30;99.90;;;;;;5051506;28;20013;-80
2022/03/10 02:01:09;;;;;;;10.02;5.88;;;9.30;99.90;;;;;;5051291;28;20040;-80
2022/03/10 02:03:35;;;;;;;8.00;5.47;;;9.40;99.90;;;;;;5051368;28;20028;-80
2022/03/10 02:06:01;;;;;;;8.63;5.45;;;9.30;99.90;;;;;;5051856;28;20021;-79
2022/03/10 02:11:12;;;;;;;12.70;6.15;;;9.30;99.90;;;;;;5051089;28;20087;-79
2022/03/10 02:13:37;;;;;;;8.27;5.30;;;9.20;99.90;;;;;;5050486;28;20025;-79
2022/03/10 02:18:48;;;;;;;7.88;5.47;;;9.30;99.90;;;;;;5051595;28;20036;-79
2022/03/10 02:21:14;;;;;;;6.35;4.95;;;9.30;99.90;;;;;;5050965;28;20021;-79
2022/03/10 02:23:40;;;;;;;7.80;5.82;;;9.30;99.90;;;;;;5052272;28;20512;-79
2022/03/10 02:26:07;;;;;;;9.07;5.50;;;9.30;99.90;;;;;;5050135;28;20091;-80
2022/03/10 02:28:34;;;;;;;7.22;4.88;;;9.30;99.90;;;;;;5050364;28;20021;-80
2022/03/10 02:31:00;;;;;;;7.38;5.13;;;9.30;99.90;;;;;;5050682;28;20055;-80
2022/03/10 02:33:25;;;;;;;9.50;5.72;;;9.20;99.90;;;;;;5050831;28;20478;-79
2022/03/10 02:35:51;;;;;;;6.53;5.15;;;9.20;99.90;;;;;;5052154;28;20074;-79
2022/03/10 02:38:20;;;;;;;10.77;4.88;;;9.10;99.90;;;;;;5049886;28;20487;-79
2022/03/10 02:40:49;;;;;;;12.48;5.85;;;9.10;99.90;;;;;;5049959;28;20098;-79
2022/03/10 02:43:15;;;;;;;8.00;4.22;;;9.20;99.90;;;;;;5049653;28;20037;-79
2022/03/10 02:45:42;;;;;;;11.02;5.25;;;9.10;99.90;;;;;;5050473;28;20017;-80
2022/03/10 02:48:08;;;;;;;7.55;5.15;;;9.00;99.90;;;;;;5050617;28;20025;-79
2022/03/10 02:50:33;;;;;;;8.50;5.32;;;9.00;99.90;;;;;;5051051;28;20045;-80
2022/03/10 02:52:59;;;;;;;6.97;4.68;;;9.00;99.90;;;;;;5050589;28;20060;-80
2022/03/10 02:55:25;;;;;;;8.68;4.53;;;8.90;99.90;;;;;;5049806;28;20032;-80
2022/03/10 02:57:51;;;;;;;5.25;4.32;;;8.80;99.90;;;;;;5049315;28;20506;-80
2022/03/10 03:00:18;;;;;;;7.53;4.85;;;8.90;99.90;;;;;;5049887;28;20545;-79
2022/03/10 03:02:44;;;;;;;7.13;4.88;;;8.80;99.90;;;;;;5050476;28;20024;-79
2022/03/10 03:05:15;;;;;;;6.45;4.63;;;8.80;99.90;;;;;;5050070;28;20125;-80
2022/03/10 03:07:41;;;;;;;5.60;4.40;;;8.80;99.90;;;;;;5050416;28;20158;-81
2022/03/10 03:10:08;;;;;;;6.78;4.60;;;8.80;99.90;;;;;;5049958;28;20413;-81
2022/03/10 03:12:34;;;;;;;6.15;4.60;;;8.70;99.90;;;;;;5048466;28;20021;-81
2022/03/10 03:15:00;;;;;;;7.35;4.25;;;8.70;99.90;;;;;;5050695;28;20091;-81
2022/03/10 03:17:27;;;;;;;8.73;4.40;;;8.70;99.90;;;;;;5048390;28;20117;-81
2022/03/10 03:19:53;;;;;;;7.57;4.65;;;8.70;99.90;;;;;;5049193;28;20028;-81
2022/03/10 03:22:19;;;;;;;5.43;3.75;;;8.80;99.90;;;;;;5048816;28;20029;-80
2022/03/10 03:24:45;;;;;;;6.65;4.93;;;8.70;99.90;;;;;;5049166;28;20025;-79
2022/03/10 03:27:12;;;;;;;6.13;4.13;;;8.70;99.90;;;;;;5048593;28;20028;-79
2022/03/10 03:29:38;;;;;;;7.55;5.15;;;8.70;99.90;;;;;;5051103;28;20033;-79
2022/03/10 03:32:04;;;;;;;8.68;5.18;;;8.70;99.90;;;;;;5049901;28;20119;-79
2022/03/10 03:34:30;;;;;;;9.88;5.50;;;8.70;99.90;;;;;;5049263;28;20020;-79
2022/03/10 03:36:56;;;;;;;6.13;4.30;;;8.70;99.90;;;;;;5048039;28;20075;-80
2022/03/10 03:39:22;;;;;;;6.63;4.82;;;8.90;99.90;;;;;;5049846;28;20017;-80
2022/03/10 03:41:48;;;;;;;6.93;4.88;;;8.80;99.90;;;;;;5049646;28;20427;-81
2022/03/10 03:44:14;;;;;;;7.18;4.65;;;8.90;99.90;;;;;;5049593;28;20036;-81
2022/03/10 03:46:40;;;;;;;7.93;5.45;;;8.90;99.90;;;;;;5037132;28;20413;-81
2022/03/10 03:49:07;;;;;;;7.45;5.00;;;8.80;99.90;;;;;;5049319;28;20099;-81
2022/03/10 03:51:33;;;;;;;5.20;4.30;;;8.90;99.90;;;;;;5049350;28;20025;-81
2022/03/10 03:53:59;;;;;;;8.93;4.50;;;9.00;99.90;;;;;;5050741;28;20032;-80
2022/03/10 03:56:24;;;;;;;12.48;5.15;;;9.10;99.90;;;;;;5048051;28;20850;-81
2022/03/10 03:58:50;;;;;;;8.65;5.07;;;9.00;99.90;;;;;;5047108;28;20017;-80
2022/03/10 04:01:15;;;;;;;7.35;5.00;;;9.00;99.90;;;;;;5049462;28;20568;-79
2022/03/10 04:03:42;;;;;;;5.85;4.00;;;9.00;99.90;;;;;;5048543;28;20071;-79
2022/03/10 04:06:08;;;;;;;6.25;4.65;;;9.10;99.90;;;;;;5048833;28;20495;-79
2022/03/10 04:08:34;;;;;;;7.30;4.20;;;9.10;99.90;;;;;;5050168;28;20050;-79
2022/03/10 04:11:00;;;;;;;7.43;4.95;;;9.00;99.90;;;;;;5046049;28;20422;-79
2022/03/10 04:13:26;;;;;;;8.75;4.57;;;9.00;99.90;;;;;;5047715;28;20025;-79
2022/03/10 04:15:52;;;;;;;7.70;4.47;;;9.00;99.90;;;;;;5048323;28;20029;-79
2022/03/10 04:18:18;;;;;;;6.57;4.63;;;8.90;99.90;;;;;;5049725;28;20427;-80
2022/03/10 04:20:45;;;;;;;9.52;4.93;;;9.00;99.90;;;;;;5050491;28;20033;-80
2022/03/10 04:23:11;;;;;;;8.27;4.53;;;8.90;99.90;;;;;;5048336;28;20483;-81
2022/03/10 04:25:37;;;;;;;7.05;4.40;;;8.90;99.90;;;;;;5046839;28;20078;-81
2022/03/10 04:28:03;;;;;;;6.07;4.35;;;8.90;99.90;;;;;;5047276;28;20033;-81
2022/03/10 04:30:32;;;;;;;6.95;4.43;;;8.90;99.90;;;;;;5048213;28;20160;-80
2022/03/10 04:32:58;;;;;;;4.78;3.88;;;8.90;99.90;;;;;;5046346;28;20076;-80
2022/03/10 04:35:25;;;;;;;5.35;4.13;;;8.80;99.90;;;;;;5047143;28;20107;-80
2022/03/10 04:37:52;;;;;;;6.47;4.20;;;8.80;99.90;;;;;;5030328;28;20498;-80
2022/03/10 04:40:19;;;;;;;5.95;4.22;;;8.80;99.90;;;;;;5047807;28;20494;-79
2022/03/10 04:42:45;;;;;;;5.10;3.72;;;8.80;99.90;;;;;;5046270;28;20022;-80
2022/03/10 04:45:12;;;;;;;5.85;3.85;;;8.70;99.90;;;;;;5048825;28;20131;-80
2022/03/10 04:47:38;;;;;;;8.98;5.13;;;8.70;99.90;;;;;;5044140;28;20033;-79
2022/03/10 04:50:06;;;;;;;7.07;4.57;;;8.80;99.90;;;;;;5047867;28;20043;-80
2022/03/10 04:52:32;;;;;;;6.75;4.25;;;8.80;99.90;;;;;;5046874;28;20107;-80
2022/03/10 04:54:59;;;;;;;5.65;4.13;;;8.70;99.90;;;;;;5046893;28;20545;-79
2022/03/10 04:57:25;;;;;;;5.30;4.07;;;8.70;99.90;;;;;;5039128;28;20028;-79
2022/03/10 04:59:50;;;;;;;6.50;4.30;;;8.80;99.90;;;;;;5049440;28;20033;-79
2022/03/10 05:02:16;;;;;;;6.50;4.68;;;8.80;99.90;;;;;;5048168;28;20501;-80
2022/03/10 05:04:42;;;;;;;5.20;4.35;;;8.80;99.90;;;;;;5034344;28;20566;-80
2022/03/10 05:07:08;;;;;;;6.05;3.90;;;8.80;99.90;;;;;;5052418;28;20107;-80
2022/03/10 05:09:34;;;;;;;6.55;4.25;;;8.90;99.90;;;;;;5052052;28;20043;-79
2022/03/10 05:12:00;;;;;;;6.78;4.28;;;8.80;99.90;;;;;;5051941;28;20510;-80
2022/03/10 05:14:26;;;;;;;5.95;4.45;;;8.80;99.90;;;;;;5051607;28;20040;-80
2022/03/10 05:16:52;;;;;;;7.80;4.00;;;8.80;99.90;;;;;;5052092;28;20426;-79
2022/03/10 05:19:17;;;;;;;5.18;4.03;;;8.80;99.90;;;;;;5052390;28;20029;-79
2022/03/10 05:21:43;;;;;;;8.18;5.38;;;8.90;99.90;;;;;;5052172;28;20025;-81
2022/03/10 05:24:10;;;;;;;5.45;4.05;;;8.90;99.90;;;;;;5046481;28;20025;-81
2022/03/10 05:26:37;;;;;;;7.25;4.70;;;8.90;99.90;;;;;;5052005;28;20032;-80
2022/03/10 05:29:03;;;;;;;7.45;4.30;;;8.90;99.90;;;;;;5051677;28;20029;-80
2022/03/10 05:31:29;;;;;;;7.97;4.80;;;8.90;99.90;;;;;;5051824;28;20025;-79
2022/03/10 05:33:54;;;;;;;8.60;5.30;;;8.90;99.90;;;;;;5052024;28;20746;-79
2022/03/10 05:36:20;;;;;;;8.35;5.13;;;8.90;99.90;;;;;;5051290;28;20021;-79
2022/03/10 05:38:46;;;;;;;8.50;4.68;;;9.00;99.90;;;;;;5052958;28;20021;-79
2022/03/10 05:41:12;;;;;;;9.45;5.05;;;8.90;99.90;;;;;;5049690;28;20025;-80
2022/03/10 05:43:38;;;;;;;9.32;5.43;;;8.90;99.90;;;;;;5050954;28;20036;-81
2022/03/10 05:46:04;;;;;;;7.43;4.68;;;9.00;99.90;;;;;;5051926;28;20033;-80
2022/03/10 05:48:30;;;;;;;9.57;5.35;;;9.00;99.90;;;;;;5051712;28;20051;-79
2022/03/10 05:50:56;;;;;;;7.50;4.80;;;9.00;99.90;;;;;;5052639;28;20522;-80
2022/03/10 05:53:22;;;;;;;8.43;5.10;;;9.00;99.90;;;;;;5052276;28;20033;-81
2022/03/10 05:55:48;;;;;;;9.18;5.15;;;9.00;99.90;;;;;;5049585;28;20111;-80
2022/03/10 05:58:14;;;;;;;9.52;4.32;;;9.00;99.90;;;;;;5049589;28;20061;-80
2022/03/10 06:00:39;;;;;;;7.47;4.65;;;9.00;99.90;;;;;;5050511;28;20020;-80
2022/03/10 06:03:06;;;;;;;8.35;4.35;;;9.00;99.90;;;;;;5051831;28;20112;-80
2022/03/10 06:05:33;;;;;;;6.07;4.32;;;9.00;99.90;;;;;;5052323;28;20021;-80
2022/03/10 06:08:00;;;;;;;6.55;4.72;;;9.00;99.90;;;;;;5050344;28;20079;-80
2022/03/10 06:10:25;;;;;;;6.97;4.45;;;8.90;99.90;;;;;;5050296;28;20040;-80
2022/03/10 06:12:52;;;;;;;5.38;3.72;;;8.90;99.90;;;;;;5050662;28;20479;-80
2022/03/10 06:15:18;;;;;;;6.50;4.38;;;8.90;99.90;;;;;;5050166;28;20024;-80
2022/03/10 06:17:43;;;;;;;7.13;4.57;;;8.90;99.90;;;;;;5052428;28;20048;-80
2022/03/10 06:20:11;;;;;;;5.78;4.50;;;8.90;99.90;;;;;;5050039;28;20366;-80
2022/03/10 06:22:37;;;;;;;7.50;4.18;;;8.90;99.90;;;;;;5048651;28;20025;-80
2022/03/10 06:25:04;;;;;;;7.47;4.68;;;8.90;99.90;;;;;;5049692;28;20552;-80
2022/03/10 06:27:30;;;;;;;6.10;4.78;;;8.80;99.90;;;;;;5049114;28;20109;-80
2022/03/10 06:29:56;;;;;;;10.50;6.13;;;8.90;99.90;;;;;;5052238;28;20021;-80
2022/03/10 06:32:23;;;;;;;8.68;6.20;;;8.90;99.90;;;;;;5047849;28;20487;-80
2022/03/10 06:34:51;;;;;;;7.65;5.55;;;8.90;99.90;;;;;;5049827;28;20025;-80
2022/03/10 06:37:18;;;;;;;6.75;5.25;;;8.90;99.90;;;;;;5051803;28;20013;-80
2022/03/10 06:39:44;;;;;;;9.90;5.85;;;9.00;99.90;;;;;;5054391;28;20020;-80
2022/03/10 06:42:10;;;;;;;10.32;5.78;;;9.00;99.90;;;;;;5051418;28;20502;-80
2022/03/10 06:44:36;;;;;;;8.65;6.43;;;9.00;99.90;;;;;;5051062;28;20040;-80
2022/03/10 06:47:05;;;;;;;10.82;6.50;;;9.10;99.90;;;;;;5049373;28;20021;-81
2022/03/10 06:49:32;;;;;;;11.02;6.60;;;9.10;99.90;;;;;;5049501;28;20045;-81
2022/03/10 06:51:58;;;;;;;10.15;6.25;;;9.20;99.90;;;;;;5050816;28;20104;-81
2022/03/10 06:54:24;;;;;;;8.85;6.13;;;9.30;99.90;;;;;;5049820;28;20025;-81
2022/03/10 06:56:49;;;;;;;10.68;6.70;;;9.30;99.90;;;;;;5049723;28;20024;-80
2022/03/10 06:59:15;;;;;;;10.15;6.90;;;9.20;99.90;;;;;;5050164;28;20021;-81
2022/03/10 07:01:41;;;;;;;11.25;6.88;;;9.20;99.90;;;;;;5044831;28;20426;-81
2022/03/10 07:04:06;;;;;;;11.68;6.05;;;9.20;99.90;;;;;;5050473;28;20025;-81
2022/03/10 07:06:32;;;;;;;12.32;6.70;;;9.20;99.90;;;;;;5052229;28;20033;-81
2022/03/10 07:08:58;;;;;;;10.88;6.78;;;9.30;99.90;;;;;;5050325;28;20036;-81
2022/03/10 07:11:25;;;;;;;15.25;8.45;;;9.40;99.90;;;;;;5048343;28;20028;-81
2022/03/10 07:13:51;;;;;;;8.73;6.63;;;9.70;99.90;;;;;;5046454;28;20229;-81
2022/03/10 07:16:18;;;;;;;12.15;8.23;;;9.70;99.90;;;;;;5047677;28;20039;-81
2022/03/10 07:18:50;;;;;;;13.68;7.45;;;9.90;99.90;;;;;;5050273;28;20013;-80
2022/03/10 07:21:20;;;;;;;11.07;7.25;;;10.40;99.90;;;;;;5058326;28;20024;-80
2022/03/10 07:23:45;;;;;;;10.15;6.72;;;10.70;99.90;;;;;;5055570;28;20107;-81
2022/03/10 07:26:12;;;;;;;11.45;7.63;;;10.60;99.90;;;;;;5052193;28;20637;-82
2022/03/10 07:28:38;;;;;;;11.82;6.90;;;10.70;99.90;;;;;;5049867;28;20048;-80
2022/03/10 07:31:04;;;;;;;11.20;6.55;;;11.60;99.90;;;;;;5049070;28;20053;-81
2022/03/10 07:33:30;;;;;;;10.45;6.43;;;13.70;99.90;;;;;;5049205;28;20032;-79
2022/03/10 07:35:56;;;;;;;8.20;6.40;;;14.20;99.90;;;;;;5051043;28;20033;-79
2022/03/10 07:38:22;;;;;;;10.38;6.43;;;14.40;99.90;;;;;;5049498;28;20115;-80
2022/03/10 07:40:48;;;;;;;8.52;5.80;;;16.60;99.90;;;;;;5049053;28;20410;-81
2022/03/10 07:43:13;;;;;;;10.98;6.18;;;17.40;99.60;;;;;;5047939;28;20033;-81
2022/03/10 07:45:39;;;;;;;10.88;6.40;;;17.90;99.10;;;;;;5049607;28;20029;-80
2022/03/10 07:48:05;;;;;;;14.43;6.82;;;18.00;97.30;;;;;;5057673;28;20506;-80
2022/03/10 07:50:31;;;;;;;8.73;6.38;;;16.90;97.90;;;;;;5050290;28;20052;-80
2022/03/10 07:52:57;;;;;;;10.43;6.45;;;17.20;98.30;;;;;;5049574;28;20025;-80
2022/03/10 07:55:22;;;;;;;11.73;7.18;;;18.30;96.40;;;;;;5049439;28;20043;-81
2022/03/10 07:57:49;;;;;;;10.18;6.90;;;18.60;96.30;;;;;;5046509;28;20517;-81
2022/03/10 08:00:15;;;;;;;10.80;7.32;;;18.10;96.60;;;;;;5049102;28;20035;-80
2022/03/10 08:02:41;;;;;;;12.57;7.97;;;18.30;95.80;;;;;;5050621;28;20092;-80
2022/03/10 08:05:08;;;;;;;10.20;7.60;;;17.10;96.70;;;;;;5049178;28;20177;-81
2022/03/10 08:07:34;;;;;;;16.80;9.07;;;16.70;97.20;;;;;;5031641;28;20025;-80
2022/03/10 08:10:01;;;;;;;13.35;9.52;;;16.20;99.00;;;;;;5048251;28;20040;-80
2022/03/10 08:12:31;;;;;;;12.15;8.98;;;16.00;99.00;;;;;;5039810;28;20083;-80
2022/03/10 08:14:57;;;;;;;14.57;8.98;;;15.90;98.80;;;;;;5046493;28;20033;-79
2022/03/10 08:17:23;;;;;;;11.38;8.45;;;14.00;99.90;;;;;;5047746;28;20045;-79
2022/03/10 08:19:49;;;;;;;14.88;9.25;;;14.10;99.90;;;;;;5046611;28;20044;-79
2022/03/10 08:22:16;;;;;;;15.48;8.73;;;13.60;99.90;;;;;;5041208;28;20498;-80
2022/03/10 08:24:43;;;;;;;14.27;9.55;;;13.50;99.90;;;;;;5042432;28;20017;-79
2022/03/10 08:27:08;;;;;;;12.65;8.25;;;14.40;99.90;;;;;;5043783;28;20029;-80
2022/03/10 08:29:34;;;;;;;12.55;8.13;;;15.90;99.90;;;;;;5044719;28;20032;-79
2022/03/10 08:32:00;;;;;;;16.20;9.15;;;16.70;98.30;;;;;;5029167;28;20522;-80
2022/03/10 08:34:25;;;;;;;16.65;9.82;;;16.30;99.20;;;;;;5042582;28;20025;-80
2022/03/10 08:36:51;;;;;;;15.10;8.90;;;16.60;98.30;;;;;;5039903;28;20514;-80
2022/03/10 08:39:17;;;;;;;16.55;9.30;;;16.70;98.10;;;;;;5051680;28;20379;-81
2022/03/10 08:41:44;;;;;;;10.98;7.97;;;16.20;98.60;;;;;;5053009;28;20035;-80
2022/03/10 08:44:12;;;;;;;13.80;8.85;;;16.00;98.70;;;;;;5051498;28;20028;-80
2022/03/10 08:46:38;;;;;;;10.95;8.25;;;15.40;99.90;;;;;;5046469;28;20030;-80
2022/03/10 08:49:04;;;;;;;12.80;7.90;;;16.50;99.60;;;;;;5043057;28;20048;-80
2022/03/10 08:51:30;;;;;;;11.65;8.02;;;15.60;99.80;;;;;;5051697;28;20029;-80
2022/03/10 08:53:56;;;;;;;15.77;8.25;;;15.60;99.90;;;;;;5046274;28;20049;-80
2022/03/10 08:56:22;;;;;;;10.95;7.07;;;16.00;99.90;;;;;;5049153;28;20040;-80
2022/03/10 08:58:48;;;;;;;10.48;7.10;;;15.20;99.90;;;;;;5045688;28;20020;-80
2022/03/10 09:01:14;;;;;;;15.52;7.57;;;15.10;99.90;;;;;;5043048;28;20029;-81
2022/03/10 09:03:39;;;;;;;10.35;6.70;;;14.20;99.90;;;;;;5051830;28;20021;-80
2022/03/10 09:06:07;;;;;;;12.48;7.38;;;14.30;99.90;;;;;;5047393;28;20405;-80
2022/03/10 09:08:33;;;;;;;11.90;7.00;;;14.10;99.90;;;;;;5050874;28;20028;-80
2022/03/10 09:10:59;;;;;;;10.98;6.35;;;14.20;99.90;;;;;;5050714;28;20036;-80
2022/03/10 09:13:25;;;;;;;11.48;6.50;;;14.00;99.90;;;;;;5049094;28;20035;-80
2022/03/10 09:15:51;;;;;;;9.85;6.85;;;13.60;99.90;;;;;;5049757;28;20098;-80
2022/03/10 09:18:17;;;;;;;10.32;5.75;;;13.40;99.90;;;;;;5042180;28;20585;-80
2022/03/10 09:20:43;;;;;;;11.48;5.63;;;13.10;99.90;;;;;;5056585;28;20025;-80
2022/03/10 09:23:09;;;;;;;9.35;6.18;;;13.20;99.90;;;;;;5051398;28;20028;-80
2022/03/10 09:25:34;;;;;;;8.63;5.82;;;13.20;99.90;;;;;;5041572;28;20387;-80
2022/03/10 09:28:00;;;;;;;7.45;5.30;;;13.40;99.90;;;;;;5042827;28;20033;-80
2022/03/10 09:30:26;;;;;;;12.55;6.05;;;13.70;99.90;;;;;;5040023;28;20044;-80
2022/03/10 09:32:52;;;;;;;9.82;5.45;;;13.90;99.90;;;;;;5045596;28;20052;-81
2022/03/10 09:35:18;;;;;;;6.55;5.22;;;14.30;99.90;;;;;;5047803;28;20029;-81
2022/03/10 09:37:44;;;;;;;9.05;5.40;;;14.10;99.90;;;;;;5049951;28;20100;-80
2022/03/10 09:40:10;;;;;;;7.80;4.68;;;14.00;99.90;;;;;;5050667;28;20577;-80
2022/03/10 09:42:37;;;;;;;10.07;5.43;;;14.30;99.90;;;;;;5049492;28;20032;-80
2022/03/10 09:45:10;;;;;;;6.45;4.32;;;14.30;99.90;;;;;;5051222;28;20025;-80
2022/03/10 09:47:37;;;;;;;8.02;4.45;;;14.20;99.90;;;;;;5049171;28;20112;-81
2022/03/10 09:50:07;;;;;;;8.55;4.55;;;14.20;99.90;;;;;;5047535;28;20044;-81
2022/03/10 09:52:32;;;;;;;7.88;5.07;;;14.30;99.90;;;;;;5049891;28;20067;-81
2022/03/10 09:54:59;;;;;;;9.95;5.07;;;14.40;99.90;;;;;;5050496;28;20029;-81
2022/03/10 09:57:25;;;;;;;8.55;4.50;;;14.40;99.90;;;;;;5048709;28;20029;-81
2022/03/10 09:59:52;;;;;;;9.13;4.63;;;14.70;99.90;;;;;;5033174;28;20116;-81
2022/03/10 10:02:19;;;;;;;7.90;4.75;;;14.50;99.90;;;;;;5049494;28;20021;-81
2022/03/10 10:04:46;;;;;;;9.80;5.63;;;14.50;99.90;;;;;;5052418;28;20029;-81
2022/03/10 10:07:12;;;;;;;10.23;5.15;;;14.50;99.90;;;;;;5052391;28;20053;-81
2022/03/10 10:09:46;;;;;;;10.82;5.90;;;14.30;99.90;;;;;;5047811;28;20064;-80
2022/03/10 10:12:14;;;;;;;10.57;4.80;;;14.30;99.90;;;;;;5047450;28;20025;-81
2022/03/10 10:14:47;;;;;;;9.27;5.57;;;14.10;99.90;;;;;;5042244;28;20075;-81
2022/03/10 10:17:13;;;;;;;5.95;4.07;;;14.30;99.90;;;;;;5048864;28;20021;-81
2022/03/10 10:19:40;;;;;;;8.93;4.20;;;14.40;99.90;;;;;;5048949;28;20024;-81
2022/03/10 10:22:16;;;;;;;8.23;4.50;;;14.40;99.90;;;;;;5045157;28;20033;-81
2022/03/10 10:24:57;;;;;;;7.97;5.22;;;14.20;99.90;;;;;;5049870;28;20108;-81
2022/03/10 10:27:28;;;;;;;6.75;5.22;;;13.80;99.90;;;;;;5047634;28;20078;-82
2022/03/10 10:29:56;;;;;;;8.75;6.07;;;13.90;99.90;;;;;;5046934;28;20033;-81
2022/03/10 10:32:32;;;;;;;8.68;6.25;;;14.00;99.90;;;;;;5049608;28;20048;-81
2022/03/10 10:35:08;;;;;;;13.40;5.90;;;14.10;99.90;;;;;;5047225;28;20494;-81
2022/03/10 10:37:38;;;;;;;12.00;5.72;;;14.00;99.90;;;;;;5023912;28;20513;-80
2022/03/10 10:40:06;;;;;;;11.15;6.60;;;14.10;99.90;;;;;;5048620;28;20029;-80
2022/03/10 10:42:34;;;;;;;8.43;5.55;;;14.10;99.90;;;;;;5039665;28;20017;-80
2022/03/10 10:45:01;;;;;;;8.05;5.40;;;14.10;99.90;;;;;;5050222;28;20021;-80
2022/03/10 10:47:28;;;;;;;7.80;4.45;;;14.10;99.90;;;;;;5050600;28;20084;-80
2022/03/10 10:50:02;;;;;;;6.32;4.68;;;14.10;99.90;;;;;;5049937;28;20044;-80
2022/03/10 10:52:41;;;;;;;6.75;4.93;;;14.00;99.90;;;;;;5050304;28;20033;-80
2022/03/10 10:55:12;;;;;;;6.65;4.75;;;14.40;99.90;;;;;;5049047;28;20033;-80
2022/03/10 10:57:38;;;;;;;;;;;14.40;99.90;;;;;;5049178;28;20096;-80
2022/03/10 11:00:12;;;;;;;9.13;4.88;;;14.50;99.90;;;;;;5028795;28;20004;-80
2022/03/10 11:02:43;;;;;;;10.10;4.85;;;14.80;99.90;;;;;;5049403;28;20517;-80
2022/03/10 11:05:12;;;;;;;8.88;4.63;;;14.90;99.90;;;;;;5046480;28;20027;-80
2022/03/10 11:07:41;;;;;;;7.97;4.72;;;14.70;99.90;;;;;;5045498;28;20029;-80
2022/03/10 11:10:09;;;;;;;6.75;4.80;;;14.80;99.90;;;;;;5047879;28;20460;-80
2022/03/10 11:12:39;;;;;;;6.95;4.20;;;14.80;99.90;;;;;;5049889;28;20025;-80
2022/03/10 11:15:07;;;;;;;8.25;4.85;;;15.00;99.90;;;;;;5049787;28;20021;-80
2022/03/10 11:17:34;;;;;;;5.25;3.90;;;15.00;99.90;;;;;;5046973;28;20021;-80
2022/03/10 11:20:01;;;;;;;5.88;4.45;;;14.60;99.90;;;;;;5050052;28;20112;-80
2022/03/10 11:22:36;;;;;;;8.80;4.65;;;14.60;99.90;;;;;;5049557;28;20111;-80
2022/03/10 11:25:44;;;;;;;8.85;4.47;;;14.70;99.90;;;;;;5049074;28;20021;-80
2022/03/10 11:28:18;;;;;;;7.03;4.40;;;14.50;99.90;;;;;;4962555;28;20592;-80
2022/03/10 11:30:53;;;;;;;10.05;4.85;;;14.40;99.90;;;;;;4968633;28;20047;-80
2022/03/10 11:33:18;;;;;;;8.07;4.53;;;14.50;99.90;;;;;;4962034;28;20112;-80
2022/03/10 11:35:46;;;;;;;8.57;4.95;;;14.40;99.90;;;;;;4969947;28;20019;-80
2022/03/10 11:38:14;;;;;;;7.57;4.78;;;14.40;99.90;;;;;;4968780;28;20106;-80
2022/03/10 11:40:49;;;;;;;8.45;5.22;;;14.30;99.90;;;;;;4968856;28;20035;-80
2022/03/10 11:43:35;;;;;;;9.55;5.18;;;14.30;99.90;;;;;;4968220;28;20038;-80
2022/03/10 11:46:17;;;;;;;5.63;4.72;;;14.30;99.90;;;;;;4968834;28;20046;-80
2022/03/10 11:48:43;;;;;;;8.02;4.93;;;14.10;99.90;;;;;;4968835;28;20740;-80
2022/03/10 11:51:11;;;;;;;10.98;6.68;;;14.10;99.90;;;;;;4968745;28;20194;-80
2022/03/10 11:53:54;;;;;;;9.95;6.47;;;14.00;99.90;;;;;;4968887;28;20041;-80
2022/03/10 11:56:57;;;;;;;9.80;7.05;;;13.90;99.90;;;;;;4967881;28;20058;-80
2022/03/10 11:59:32;;;;;;;12.77;7.60;;;14.00;99.90;;;;;;5006239;28;20121;-80
2022/03/10 12:01:59;;;;;;;10.65;6.90;;;14.00;99.90;;;;;;5010118;28;20030;-80
2022/03/10 12:04:39;;;;;;;11.05;7.20;;;14.20;99.90;;;;;;5010088;28;20061;-80
2022/03/10 12:07:05;;;;;;;8.55;6.20;;;14.10;99.90;;;;;;5009573;28;20022;-81
2022/03/10 12:09:33;;;;;;;9.52;6.05;;;14.20;99.90;;;;;;5008994;28;20037;-80
2022/03/10 12:12:19;;;;;;;9.57;7.18;;;14.30;99.90;;;;;;5011118;28;20503;-80
2022/03/10 12:14:46;;;;;;;9.15;6.60;;;14.40;99.90;;;;;;5013434;28;20025;-80
2022/03/10 12:17:42;;;;;;;11.32;7.38;;;14.40;99.90;;;;;;5012062;28;20097;-81
2022/03/10 12:20:16;;;;;;;10.07;7.35;;;14.40;99.90;;;;;;5013532;28;20065;-82
2022/03/10 12:23:03;;;;;;;8.82;6.43;;;14.40;99.90;;;;;;5013490;28;20073;-82
2022/03/10 12:25:30;;;;;;;10.43;6.95;;;14.50;99.90;;;;;;5009511;28;20025;-82
2022/03/10 12:27:57;;;;;;;9.38;7.47;;;14.40;99.90;;;;;;5012483;28;20033;-82
2022/03/10 12:30:28;;;;;;;11.60;8.15;;;14.40;99.90;;;;;;5013691;28;20022;-82
2022/03/10 12:32:55;;;;;;;9.75;7.35;;;14.30;99.90;;;;;;5013830;28;20061;-82
2022/03/10 12:35:26;;;;;;;9.50;7.45;;;14.40;99.90;;;;;;5013307;28;20026;-83
2022/03/10 12:37:53;;;;;;;10.13;7.55;;;14.50;99.90;;;;;;5012760;28;20049;-82
2022/03/10 12:40:21;;;;;;;12.25;8.32;;;14.40;99.90;;;;;;5013066;28;20045;-82
2022/03/10 12:42:47;;;;;;;10.23;7.90;;;14.30;99.90;;;;;;5012981;28;20030;-82
2022/03/10 12:45:17;;;;;;;10.63;7.95;;;14.30;99.90;;;;;;5013609;28;20101;-82
2022/03/10 12:47:48;;;;;;;9.57;7.43;;;14.30;99.90;;;;;;5014350;28;20137;-82
2022/03/10 12:50:14;;;;;;;9.73;7.25;;;14.30;99.90;;;;;;5037388;28;20110;-82
2022/03/10 12:52:42;;;;;;;11.05;7.72;;;14.40;99.90;;;;;;5053103;28;20021;-82
2022/03/10 12:55:10;;;;;;;8.52;6.75;;;14.30;99.90;;;;;;5051133;28;20575;-82
2022/03/10 12:57:37;;;;;;;10.13;7.25;;;14.20;99.90;;;;;;5049842;28;20029;-82